This is the latest recevied weather packets stored in our database for station/object K7CTM. If no packets are shown the sender has not sent any weather packets the latest 10 day(s).
| Time | Temp. | Humidity | Pressure | Rain* | Wind** | Luminosity | Snow |
|---|---|---|---|---|---|---|---|
| 1777732068 | 8.89° C | 54% | 1028.9 hPa | 0 mm | - | 319 W/m² | - |
| 1777731764 | 7.22° C | 54% | 1028.9 hPa | 0 mm | - | 288 W/m² | - |
| 1777731461 | 6.67° C | 56% | 1028.8 hPa | 0 mm | - | 275 W/m² | - |
| 1777731160 | 6.11° C | 61% | 1029 hPa | 0 mm | - | 209 W/m² | - |
| 1777730857 | 5.56° C | 60% | 1029 hPa | 0 mm | - | 162 W/m² | - |
| 1777730555 | 5.56° C | 56% | 1029 hPa | 0 mm | - | 180 W/m² | - |
| 1777730250 | 6.11° C | 55% | 1028.8 hPa | 0 mm | - | 138 W/m² | - |
| 1777729947 | 6.11° C | 51% | 1029 hPa | 0 mm | - | 109 W/m² | - |
| 1777729643 | 5.56° C | 50% | 1028.9 hPa | 0 mm | - | 102 W/m² | - |
| 1777729341 | 5.56° C | 51% | 1028.8 hPa | 0 mm | - | 106 W/m² | - |
| 1777729037 | 5.56° C | 51% | 1028.9 hPa | 0 mm | - | 109 W/m² | - |
| 1777728734 | 5° C | 53% | 1028.7 hPa | 0 mm | - | 118 W/m² | - |
| 1777728430 | 4.44° C | 55% | 1028.8 hPa | 0 mm | - | 117 W/m² | - |
| 1777728128 | 3.89° C | 56% | 1028.7 hPa | 0 mm | - | 109 W/m² | - |
| 1777727825 | 3.33° C | 62% | 1028.7 hPa | 0 mm | - | 94 W/m² | - |
| 1777727522 | 2.78° C | 60% | 1028.5 hPa | 0 mm | - | 63 W/m² | - |
| 1777727219 | 2.78° C | 59% | 1028.6 hPa | 0 mm | - | 67 W/m² | - |
| 1777726916 | 2.22° C | 60% | 1028.5 hPa | 0 mm | - | 57 W/m² | - |
| 1777726612 | 0.56° C | 69% | 1028.3 hPa | 0 mm | - | 47 W/m² | - |
| 1777726310 | 0.56° C | 72% | 1028.5 hPa | 0 mm | - | 41 W/m² | - |
| 1777726006 | 1.67° C | 68% | 1028.6 hPa | 0 mm | - | 31 W/m² | - |
| 1777725704 | 1.67° C | 62% | 1028.3 hPa | 0 mm | - | 26 W/m² | - |
| 1777725402 | 1.67° C | 61% | 1028.1 hPa | 0 mm | - | 20 W/m² | - |
| 1777725099 | 1.67° C | 62% | 1028.1 hPa | 0 mm | - | 17 W/m² | - |
| 1777724795 | 1.67° C | 63% | 1028.1 hPa | 0 mm | - | 15 W/m² | - |
* Rain latest hour (hover to see other rain measurements)
** Current wind speed in m/s (hover to see current wind gust speed)